Main page
METAR-TAF:

METAR-TAF

Airports :

Algiers, Algeria

Houari Boumediene Airport

latitude: 36-43N, longitude: 003-15E, elevation: 25 m

Current weather observation

The report was made 23 minutes ago, at 03:30 UTC
Wind 1 kt from the South/Southeast
Temperature 15°C
Humidity 88%
Pressure 1021 hPa
Visibility 10 km or more
Few clouds at a height of 2600 ft

METAR: DAAG 200330Z 15001KT 9999 FEW026 15/13 Q1021

Time: 04:53 (03:53 UTC)

Forecast

The report was made 4 hours and 53 minutes ago, at 23:00 UTC
Forecast valid from 20 at 00 UTC to 20 at 24 UTC
Wind 2 kt from variable directions
Visibility 10 km or more
Few clouds at a height of 2600 ft
Becoming
from 20 at 08 UTC to 20 at 11 UTC
Wind 12 kt from the Northeast
Becoming
from 20 at 19 UTC to 20 at 22 UTC
Wind 2 kt from variable directions

TAF: DAAG 192300Z 2000/2024 VRB02KT 9999 FEW026 BECMG 2008/2011 04012KT BECMG 2019/2022 VRB02KT

Weather observations and forecasts of more than 4000 airports (METAR and TAF reports).

The available stations are represented by yellow and red dots on the map.

Hover mouse over dot to see the name of the station.

Then click to see weather observations and forecasts.

To change the map : click on the green buttons with a black cross to zoom in, on the green button with a dash to zoom out, or on the green arrows for adjacent maps.


METAR-TAF: